TimeCST,TemperatureF,Dew PointF,Humidity,Sea Level PressureIn,VisibilityMPH,Wind Direction,Wind SpeedMPH,Gust SpeedMPH,PrecipitationIn,Events,Conditions,WindDirDegrees,DateUTC
12:53 AM,19.9,15.1,81,29.99,10.0,SW,4.6,-,N/A,,Clear,230,2013-01-31 06:53:00
1:53 AM,19.9,15.1,81,29.99,10.0,SW,3.5,-,N/A,,Scattered Clouds,230,2013-01-31 07:53:00
2:53 AM,19.9,16.0,85,30.01,10.0,SW,3.5,-,N/A,,Overcast,220,2013-01-31 08:53:00
3:53 AM,23.0,18.0,81,29.99,10.0,SW,5.8,-,N/A,,Overcast,230,2013-01-31 09:53:00
4:53 AM,23.0,19.0,85,29.98,10.0,SW,4.6,-,N/A,,Scattered Clouds,220,2013-01-31 10:53:00
5:53 AM,23.0,19.0,85,29.99,10.0,West,3.5,-,N/A,,Clear,270,2013-01-31 11:53:00
6:53 AM,24.1,18.0,77,30.03,10.0,NNW,9.2,-,N/A,,Partly Cloudy,330,2013-01-31 12:53:00
7:53 AM,21.9,16.0,78,30.07,10.0,NNW,11.5,-,N/A,,Mostly Cloudy,340,2013-01-31 13:53:00
8:53 AM,21.9,12.9,68,30.10,10.0,NNW,12.7,-,N/A,,Scattered Clouds,340,2013-01-31 14:53:00
9:53 AM,19.9,8.1,60,30.14,10.0,North,17.3,23.0,N/A,,Clear,350,2013-01-31 15:53:00
10:53 AM,19.0,6.1,57,30.18,10.0,NNW,13.8,23.0,N/A,,Overcast,330,2013-01-31 16:53:00
11:53 AM,19.0,6.1,57,30.23,10.0,NNW,16.1,24.2,N/A,,Overcast,340,2013-01-31 17:53:00
12:53 PM,19.0,5.0,54,30.25,10.0,NNW,19.6,29.9,N/A,,Overcast,330,2013-01-31 18:53:00
2:53 PM,19.0,3.9,52,30.29,10.0,NNW,15.0,27.6,N/A,,Partly Cloudy,340,2013-01-31 20:53:00
3:53 PM,12.9,-0.0,56,30.33,10.0,NW,17.3,24.2,N/A,,Clear,310,2013-01-31 21:53:00
4:53 PM,14.0,1.9,59,30.35,10.0,NNW,13.8,21.9,N/A,,Clear,330,2013-01-31 22:53:00
5:53 PM,12.9,-0.9,54,30.37,10.0,NNW,12.7,23.0,N/A,,Clear,330,2013-01-31 23:53:00
6:53 PM,12.0,-0.0,59,30.42,10.0,NNW,11.5,19.6,N/A,,Clear,340,2013-02-01 00:53:00
7:53 PM,10.9,-0.9,59,30.43,10.0,NNW,8.1,-,N/A,,Clear,340,2013-02-01 01:53:00
8:53 PM,10.0,-0.9,61,30.47,10.0,NNW,8.1,-,N/A,,Clear,330,2013-02-01 02:53:00
9:53 PM,9.0,-0.0,67,30.51,10.0,West,5.8,-,N/A,,Clear,280,2013-02-01 03:53:00
10:53 PM,8.1,-0.9,67,30.51,10.0,Calm,Calm,-,N/A,,Clear,0,2013-02-01 04:53:00
11:53 PM,8.1,-0.0,70,30.50,10.0,Calm,Calm,-,N/A,,Clear,0,2013-02-01 05:53:00